Time;durP1;ratioP1;P1;durP2;ratioP2;P2;SDS_P1;SDS_P2;PMS_P1;PMS_P2;Temp;Humidity;BMP_temperature;BMP_pressure;BME280_temperature;BME280_humidity;BME280_pressure;Samples;Min_cycle;Max_cycle;Signal;HPM_P1;HPM_P2
2023/05/16 00:00:41;;;;;;;;;;;;;;;26.68;28.28;97619.41;5073022;28;19971;-82
2023/05/16 00:03:10;;;;;;;;;;;;;;;26.55;28.20;97608.25;5062786;28;20456;-82
2023/05/16 00:05:37;;;;;;;;;;;;;;;26.58;28.53;97617.81;5064453;28;19927;-82
2023/05/16 00:08:03;;;;;;;;;;;;;;;26.71;28.17;97615.66;5073630;28;19931;-82
2023/05/16 00:10:29;;;;;;;;;;;;;;;26.66;27.98;97621.91;5075616;28;19986;-82
2023/05/16 00:12:56;;;;;;;;;;;;;;;26.63;28.10;97629.25;5073643;28;20453;-82
2023/05/16 00:15:23;;;;;;;;;;;;;;;26.47;28.27;97634.31;5069742;28;19924;-82
2023/05/16 00:17:50;;;;;;;;;;;;;;;26.37;28.43;97630.66;5077399;28;20041;-82
2023/05/16 00:20:22;;;;;;;;;;;;;;;26.49;28.56;97632.59;5077247;28;19943;-82
2023/05/16 00:22:48;;;;;;;;;;;;;;;26.49;28.34;97634.66;5063766;28;19923;-82
2023/05/16 00:25:14;;;;;;;;;;;;;;;26.56;27.95;97635.16;5054807;28;19920;-82
2023/05/16 00:27:40;;;;;;;;;;;;;;;26.37;28.29;97636.28;5065528;28;19953;-82
2023/05/16 00:30:06;;;;;;;;;;;;;;;26.28;28.49;97636.25;5068135;28;20396;-82
2023/05/16 00:32:32;;;;;;;;;;;;;;;26.20;28.69;97634.16;5063112;28;19917;-82
2023/05/16 00:34:58;;;;;;;;;;;;;;;26.20;28.87;97636.97;5054141;28;19925;-82
2023/05/16 00:37:24;;;;;;;;;;;;;;;26.30;28.18;97633.75;5077355;28;19924;-82
2023/05/16 00:39:50;;;;;;;;;;;;;;;26.25;28.49;97636.38;5063642;28;20019;-82
2023/05/16 00:42:18;;;;;;;;;;;;;;;26.35;28.02;97635.22;5059790;28;20011;-82
2023/05/16 00:44:44;;;;;;;;;;;;;;;26.43;28.06;97642.91;5063479;28;19981;-82
2023/05/16 00:47:11;;;;;;;;;;;;;;;26.52;28.04;97648.59;5063789;28;19921;-82
2023/05/16 00:49:37;;;;;;;;;;;;;;;26.45;28.76;97646.03;5039128;28;19921;-82
2023/05/16 00:52:03;;;;;;;;;;;;;;;26.45;28.32;97650.88;5053455;28;20251;-82
2023/05/16 00:54:30;;;;;;;;;;;;;;;26.52;28.19;97664.69;5050538;28;19921;-82
2023/05/16 00:56:56;;;;;;;;;;;;;;;26.52;28.36;97659.06;5051069;28;19931;-82
2023/05/16 00:59:23;;;;;;;;;;;;;;;26.45;28.21;97656.50;5053761;28;20016;-82
2023/05/16 01:01:49;;;;;;;;;;;;;;;26.39;28.54;97647.91;5048466;28;20262;-82
2023/05/16 01:04:16;;;;;;;;;;;;;;;26.44;28.37;97652.91;5054428;28;19928;-82
2023/05/16 01:06:43;;;;;;;;;;;;;;;26.58;28.08;97645.97;5053702;28;19925;-82
2023/05/16 01:09:09;;;;;;;;;;;;;;;26.62;28.23;97641.78;5052508;28;19920;-82
2023/05/16 01:11:43;;;;;;;;;;;;;;;26.46;28.46;97647.63;5052235;28;19987;-82
2023/05/16 01:14:15;;;;;;;;;;;;;;;26.39;28.24;97649.94;5050674;28;20368;-82
2023/05/16 01:16:45;;;;;;;;;;;;;;;26.32;28.25;97650.97;5057198;28;19924;-82
2023/05/16 01:19:18;;;;;;;;;;;;;;;26.14;28.91;97652.91;5036591;28;19979;-82
2023/05/16 01:21:49;;;;;;;;;;;;;;;26.34;28.58;97651.31;5052998;28;20249;-82
2023/05/16 01:24:31;;;;;;;;;;;;;;;26.50;28.45;97653.09;5052196;28;19921;-82
2023/05/16 01:26:58;;;;;;;;;;;;;;;26.55;27.87;97646.88;5050870;28;19917;-82
2023/05/16 01:29:24;;;;;;;;;;;;;;;26.61;27.38;97643.00;5053754;28;19989;-82
2023/05/16 01:31:50;;;;;;;;;;;;;;;26.72;27.28;97642.59;5048362;28;19917;-82
2023/05/16 01:34:17;;;;;;;;;;;;;;;26.82;27.18;97644.22;5035226;28;19921;-82
2023/05/16 01:36:47;;;;;;;;;;;;;;;26.83;26.96;97651.44;5055349;28;19927;-82
2023/05/16 01:39:31;;;;;;;;;;;;;;;26.76;27.07;97651.72;5046125;28;19921;-82
2023/05/16 01:42:03;;;;;;;;;;;;;;;26.27;27.83;97647.97;5045586;28;20286;-82
2023/05/16 01:44:32;;;;;;;;;;;;;;;26.16;28.26;97644.78;5049568;28;19921;-82
2023/05/16 01:47:01;;;;;;;;;;;;;;;25.97;28.77;97641.00;5060264;28;20007;-82
2023/05/16 01:49:33;;;;;;;;;;;;;;;26.02;27.95;97634.81;5059134;28;19921;-82
2023/05/16 01:52:01;;;;;;;;;;;;;;;26.19;27.72;97641.81;5060029;28;19920;-81
2023/05/16 01:54:30;;;;;;;;;;;;;;;26.25;27.66;97645.63;5055532;28;19944;-81
2023/05/16 01:56:56;;;;;;;;;;;;;;;26.20;27.41;97640.59;5066494;28;20292;-82
2023/05/16 01:59:23;;;;;;;;;;;;;;;26.02;27.84;97649.63;5064804;28;20383;-82
2023/05/16 02:01:51;;;;;;;;;;;;;;;25.74;28.13;97647.06;5064036;28;20335;-82
2023/05/16 02:04:17;;;;;;;;;;;;;;;25.81;28.26;97646.81;5072585;28;19931;-82
2023/05/16 02:06:44;;;;;;;;;;;;;;;25.90;27.73;97644.88;5075459;28;19924;-82
2023/05/16 02:09:10;;;;;;;;;;;;;;;25.86;28.05;97641.38;5075189;28;20281;-81
2023/05/16 02:11:36;;;;;;;;;;;;;;;26.05;27.72;97642.31;5071987;28;19931;-81
2023/05/16 02:14:02;;;;;;;;;;;;;;;26.02;27.86;97635.56;5076021;28;19929;-82
2023/05/16 02:16:29;;;;;;;;;;;;;;;26.13;27.25;97640.84;5072383;28;19927;-81
2023/05/16 02:18:55;;;;;;;;;;;;;;;26.15;26.93;97638.34;5075098;28;19921;-82
2023/05/16 02:21:21;;;;;;;;;;;;;;;26.23;27.61;97636.06;5079792;28;20020;-82
2023/05/16 02:23:47;;;;;;;;;;;;;;;26.01;27.91;97630.41;5068102;28;20003;-82
2023/05/16 02:26:13;;;;;;;;;;;;;;;26.04;27.90;97635.13;5074361;28;19925;-82
2023/05/16 02:28:39;;;;;;;;;;;;;;;26.11;27.28;97639.72;5055540;28;20007;-82
2023/05/16 02:31:05;;;;;;;;;;;;;;;26.14;27.25;97650.09;5068359;28;19921;-82
2023/05/16 02:33:32;;;;;;;;;;;;;;;26.24;27.35;97635.59;5059979;28;20364;-82
2023/05/16 02:35:58;;;;;;;;;;;;;;;26.21;27.44;97638.56;5074741;28;19920;-82
2023/05/16 02:38:24;;;;;;;;;;;;;;;26.09;27.51;97638.13;5076207;28;19970;-82
2023/05/16 02:40:50;;;;;;;;;;;;;;;26.20;27.14;97628.53;5070922;28;19923;-82
2023/05/16 02:43:16;;;;;;;;;;;;;;;26.34;26.80;97642.06;5070031;28;19955;-82
2023/05/16 02:45:42;;;;;;;;;;;;;;;26.30;26.77;97645.00;5070917;28;20380;-81
2023/05/16 02:48:08;;;;;;;;;;;;;;;26.25;26.75;97645.63;5070382;28;19920;-82
2023/05/16 02:50:35;;;;;;;;;;;;;;;26.31;26.95;97654.25;5071967;28;20457;-82
2023/05/16 02:53:01;;;;;;;;;;;;;;;26.21;27.11;97656.22;5060920;28;19920;-82
2023/05/16 02:55:27;;;;;;;;;;;;;;;25.99;27.59;97659.00;5065200;28;19975;-82
2023/05/16 02:57:53;;;;;;;;;;;;;;;25.79;28.10;97663.38;5067099;28;19920;-82
2023/05/16 03:00:20;;;;;;;;;;;;;;;25.85;27.88;97661.53;5076968;28;19938;-82
2023/05/16 03:02:46;;;;;;;;;;;;;;;25.72;28.36;97655.19;5077752;28;20295;-82
2023/05/16 03:05:12;;;;;;;;;;;;;;;25.78;28.29;97647.72;5076883;28;19920;-82
2023/05/16 03:07:38;;;;;;;;;;;;;;;26.02;28.05;97646.81;5085884;28;20368;-82
2023/05/16 03:10:05;;;;;;;;;;;;;;;26.25;27.40;97644.84;5083647;28;20302;-82
2023/05/16 03:12:31;;;;;;;;;;;;;;;26.44;27.14;97657.78;5077551;28;20372;-82
2023/05/16 03:14:56;;;;;;;;;;;;;;;26.40;27.31;97646.63;5080069;28;19920;-82
2023/05/16 03:17:22;;;;;;;;;;;;;;;26.36;27.08;97651.63;5091543;28;19916;-82
2023/05/16 03:19:49;;;;;;;;;;;;;;;26.36;27.29;97651.63;5080920;28;20417;-82
2023/05/16 03:22:15;;;;;;;;;;;;;;;26.12;27.84;97638.47;5086838;28;19917;-82
2023/05/16 03:24:41;;;;;;;;;;;;;;;26.07;27.90;97640.59;5074298;28;19921;-82
2023/05/16 03:27:07;;;;;;;;;;;;;;;26.25;27.90;97637.19;5070486;28;19920;-83
2023/05/16 03:29:33;;;;;;;;;;;;;;;26.50;27.81;97650.28;5059082;28;19923;-82
2023/05/16 03:31:59;;;;;;;;;;;;;;;26.65;27.41;97654.16;5068585;28;19921;-82
2023/05/16 03:34:25;;;;;;;;;;;;;;;26.46;27.79;97658.88;5070443;28;19923;-83
2023/05/16 03:36:52;;;;;;;;;;;;;;;26.69;28.53;97669.66;5069722;28;19947;-83
2023/05/16 03:39:18;;;;;;;;;;;;;;;26.82;27.93;97675.22;5070957;28;19997;-83
2023/05/16 03:41:44;;;;;;;;;;;;;;;26.78;28.30;97673.78;5078389;28;19967;-83
2023/05/16 03:44:10;;;;;;;;;;;;;;;26.94;28.61;97685.59;5071402;28;19927;-83
2023/05/16 03:46:36;;;;;;;;;;;;;;;27.33;27.90;97678.38;5068801;28;19999;-83
2023/05/16 03:49:02;;;;;;;;;;;;;;;27.41;27.96;97676.84;5074423;28;19925;-83
2023/05/16 03:51:29;;;;;;;;;;;;;;;27.42;29.43;97674.84;5055137;28;19923;-83
2023/05/16 03:53:55;;;;;;;;;;;;;;;27.71;28.64;97673.16;5067139;28;19929;-84
2023/05/16 03:56:21;;;;;;;;;;;;;;;27.89;28.98;97672.41;5068141;28;19993;-84
2023/05/16 03:58:47;;;;;;;;;;;;;;;28.23;29.10;97672.09;5078320;28;19927;-84
2023/05/16 04:01:13;;;;;;;;;;;;;;;28.57;28.54;97676.56;5085422;28;20016;-84
2023/05/16 04:03:40;;;;;;;;;;;;;;;28.74;28.18;97677.81;5078311;28;19927;-84
2023/05/16 04:06:06;;;;;;;;;;;;;;;28.62;29.31;97670.31;5071935;28;19951;-84
2023/05/16 04:08:32;;;;;;;;;;;;;;;28.85;28.94;97672.44;5084191;28;20020;-84
2023/05/16 04:10:58;;;;;;;;;;;;;;;28.91;29.52;97672.59;5055164;28;19981;-84
2023/05/16 04:13:24;;;;;;;;;;;;;;;29.10;29.23;97672.00;5064341;28;19916;-85
2023/05/16 04:15:50;;;;;;;;;;;;;;;29.25;29.41;97675.75;5065184;28;19920;-84
2023/05/16 04:18:16;;;;;;;;;;;;;;;29.44;28.94;97673.59;5074306;28;19980;-85
2023/05/16 04:20:43;;;;;;;;;;;;;;;29.61;29.38;97671.94;5065396;28;20036;-84
2023/05/16 04:23:12;;;;;;;;;;;;;;;29.85;29.26;97681.22;5061314;28;19920;-84
2023/05/16 04:25:38;;;;;;;;;;;;;;;30.02;29.04;97682.34;5069858;28;19916;-83
2023/05/16 04:28:04;;;;;;;;;;;;;;;30.10;28.38;97688.44;5046397;28;20069;-83
2023/05/16 04:30:31;;;;;;;;;;;;;;;30.19;29.16;97687.56;5068078;28;19931;-82
2023/05/16 04:32:58;;;;;;;;;;;;;;;30.32;27.69;97693.72;5075524;28;19923;-83
2023/05/16 04:35:25;;;;;;;;;;;;;;;30.11;29.84;97694.88;5073430;28;20256;-81
2023/05/16 04:37:51;;;;;;;;;;;;;;;30.30;29.86;97699.88;5087573;28;20315;-82
2023/05/16 04:40:17;;;;;;;;;;;;;;;30.57;28.65;97696.81;5075075;28;19924;-81
2023/05/16 04:42:43;;;;;;;;;;;;;;;30.65;29.94;97700.84;5061508;28;19924;-83
2023/05/16 04:45:13;;;;;;;;;;;;;;;30.95;29.29;97698.03;5069102;28;19973;-82
2023/05/16 04:47:39;;;;;;;;;;;;;;;30.86;30.23;97710.22;5041304;28;19927;-82
2023/05/16 04:50:06;;;;;;;;;;;;;;;31.01;28.99;97713.88;5050541;28;19921;-81
2023/05/16 04:52:32;;;;;;;;;;;;;;;31.17;26.96;97712.56;5050612;28;19983;-81
2023/05/16 04:54:59;;;;;;;;;;;;;;;31.05;28.46;97710.81;5060628;28;19960;-88
2023/05/16 04:57:26;;;;;;;;;;;;;;;31.04;28.10;97707.19;5049063;28;19921;-83
2023/05/16 04:59:55;;;;;;;;;;;;;;;30.82;28.45;97708.84;5052283;28;19975;-83
2023/05/16 05:02:21;;;;;;;;;;;;;;;30.58;28.05;97708.94;5050401;28;19925;-82
2023/05/16 05:04:48;;;;;;;;;;;;;;;30.81;26.23;97704.47;5051565;28;19921;-83
2023/05/16 05:07:14;;;;;;;;;;;;;;;30.80;28.42;97709.34;5052118;28;19925;-83
2023/05/16 05:09:41;;;;;;;;;;;;;;;30.73;28.88;97715.41;5053250;28;19972;-83
2023/05/16 05:12:08;;;;;;;;;;;;;;;30.80;28.92;97709.34;5052466;28;19921;-83
2023/05/16 05:14:34;;;;;;;;;;;;;;;31.00;29.69;97712.28;5053274;28;20062;-83
2023/05/16 05:17:00;;;;;;;;;;;;;;;31.22;28.57;97706.19;5053029;28;20011;-83
2023/05/16 05:19:26;;;;;;;;;;;;;;;31.36;28.85;97708.22;5051643;28;19917;-83
2023/05/16 05:21:52;;;;;;;;;;;;;;;31.37;31.60;97712.63;5052764;28;20062;-83
2023/05/16 05:24:18;;;;;;;;;;;;;;;31.74;31.43;97715.78;5051905;28;19960;-83
2023/05/16 05:26:44;;;;;;;;;;;;;;;32.14;30.47;97726.41;5051651;28;19963;-83
2023/05/16 05:29:10;;;;;;;;;;;;;;;32.36;30.66;97735.19;5051465;28;20357;-83
2023/05/16 05:31:37;;;;;;;;;;;;;;;32.28;29.09;97734.81;5051732;28;19921;-84
2023/05/16 05:34:03;;;;;;;;;;;;;;;32.38;31.32;97727.72;5033062;28;19920;-84
2023/05/16 05:36:29;;;;;;;;;;;;;;;32.85;28.57;97722.81;5051981;28;20369;-84
2023/05/16 05:38:56;;;;;;;;;;;;;;;32.58;27.45;97736.22;5055188;28;20515;-84
2023/05/16 05:41:22;;;;;;;;;;;;;;;32.19;31.26;97737.81;5057140;28;19921;-84
2023/05/16 05:43:48;;;;;;;;;;;;;;;32.43;30.17;97737.59;5055824;28;20016;-84
2023/05/16 05:46:16;;;;;;;;;;;;;;;32.74;31.14;97727.09;5059646;28;20339;-84
2023/05/16 05:48:42;;;;;;;;;;;;;;;33.23;29.32;97714.66;5077443;28;19927;-84
2023/05/16 05:51:08;;;;;;;;;;;;;;;33.51;28.65;97719.75;5075508;28;19994;-84
2023/05/16 05:53:34;;;;;;;;;;;;;;;33.71;27.30;97716.78;5054538;28;19927;-83
2023/05/16 05:56:00;;;;;;;;;;;;;;;33.85;26.83;97730.88;5056977;28;19917;-82
2023/05/16 05:58:26;;;;;;;;;;;;;;;34.04;27.30;97720.63;5056816;28;20007;-82
2023/05/16 06:00:52;;;;;;;;;;;;;;;34.25;27.77;97732.63;5066502;28;19928;-84
2023/05/16 06:03:19;;;;;;;;;;;;;;;34.36;27.49;97735.53;5056865;28;20384;-86
2023/05/16 06:05:46;;;;;;;;;;;;;;;34.29;26.84;97732.38;5056928;28;19924;-83
2023/05/16 06:08:12;;;;;;;;;;;;;;;34.24;27.01;97728.22;5056872;28;20046;-83
2023/05/16 06:10:38;;;;;;;;;;;;;;;34.39;26.02;97722.31;5056352;28;19956;-83
2023/05/16 06:13:04;;;;;;;;;;;;;;;34.23;26.42;97723.03;5057085;28;19988;-83
2023/05/16 06:15:31;;;;;;;;;;;;;;;34.30;26.79;97729.03;5056842;28;19963;-83
2023/05/16 06:17:57;;;;;;;;;;;;;;;34.27;25.05;97732.13;5056978;28;20330;-83
2023/05/16 06:20:23;;;;;;;;;;;;;;;34.35;26.17;97731.13;5056940;28;19967;-84
2023/05/16 06:22:49;;;;;;;;;;;;;;;34.42;24.67;97733.50;5056608;28;19917;-84
2023/05/16 06:25:15;;;;;;;;;;;;;;;33.96;22.72;97739.47;5052869;28;19960;-84
2023/05/16 06:27:41;;;;;;;;;;;;;;;33.72;23.58;97733.38;5056603;28;19913;-83
2023/05/16 06:30:07;;;;;;;;;;;;;;;33.63;25.60;97729.97;5056832;28;19917;-83
2023/05/16 06:32:33;;;;;;;;;;;;;;;33.66;24.34;97732.56;5038753;28;20395;-83
2023/05/16 06:35:00;;;;;;;;;;;;;;;33.38;25.43;97732.34;5056943;28;19917;-83
2023/05/16 06:37:26;;;;;;;;;;;;;;;33.28;26.83;97738.75;5055462;28;19972;-84
2023/05/16 06:39:52;;;;;;;;;;;;;;;33.26;23.60;97735.59;5056519;28;20377;-83
2023/05/16 06:42:19;;;;;;;;;;;;;;;33.32;25.32;97730.75;5056462;28;19966;-83
2023/05/16 06:44:45;;;;;;;;;;;;;;;33.36;25.15;97736.97;5056198;28;19917;-83
2023/05/16 06:47:11;;;;;;;;;;;;;;;33.56;27.10;97744.66;5017364;28;20308;-84
2023/05/16 06:49:37;;;;;;;;;;;;;;;33.72;25.88;97744.78;5039913;28;20373;-84
2023/05/16 06:52:03;;;;;;;;;;;;;;;33.71;25.05;97742.44;5055422;28;19913;-84
2023/05/16 06:54:29;;;;;;;;;;;;;;;33.50;24.07;97747.44;5054241;28;19927;-84
2023/05/16 06:56:56;;;;;;;;;;;;;;;33.42;26.07;97752.06;5055127;28;19963;-85
2023/05/16 06:59:22;;;;;;;;;;;;;;;33.43;27.07;97759.28;5052213;28;20405;-84
2023/05/16 07:01:48;;;;;;;;;;;;;;;33.70;25.21;97761.56;5054344;28;19928;-85
2023/05/16 07:04:15;;;;;;;;;;;;;;;33.98;26.09;97770.31;5056045;28;19917;-84
2023/05/16 07:06:41;;;;;;;;;;;;;;;34.21;25.95;97777.72;5055597;28;20304;-85
2023/05/16 07:09:07;;;;;;;;;;;;;;;34.23;25.36;97775.13;5055130;28;19924;-84
2023/05/16 07:11:33;;;;;;;;;;;;;;;34.20;23.93;97776.16;5055862;28;19963;-84
2023/05/16 07:13:59;;;;;;;;;;;;;;;33.68;25.80;97783.34;5055884;28;19917;-84
2023/05/16 07:16:27;;;;;;;;;;;;;;;33.39;24.70;97776.63;5054032;28;19921;-84
2023/05/16 07:18:53;;;;;;;;;;;;;;;33.15;25.69;97778.97;5054973;28;20299;-84
2023/05/16 07:21:19;;;;;;;;;;;;;;;33.00;23.33;97775.44;5055446;28;20284;-84
2023/05/16 07:23:45;;;;;;;;;;;;;;;32.90;26.12;97778.97;5055418;28;19924;-85
2023/05/16 07:26:11;;;;;;;;;;;;;;;33.33;26.55;97772.13;5054661;28;20314;-86
2023/05/16 07:28:37;;;;;;;;;;;;;;;33.61;24.16;97772.41;5055532;28;20011;-86
2023/05/16 07:31:03;;;;;;;;;;;;;;;33.65;25.20;97775.78;5055066;28;20016;-85
2023/05/16 07:33:29;;;;;;;;;;;;;;;33.39;22.31;97775.81;5054507;28;19917;-85
2023/05/16 07:35:55;;;;;;;;;;;;;;;32.98;24.09;97775.16;5054707;28;20281;-85
2023/05/16 07:38:21;;;;;;;;;;;;;;;32.82;25.57;97763.63;5055371;28;20012;-85
2023/05/16 07:40:47;;;;;;;;;;;;;;;32.90;24.81;97774.06;5054700;28;20011;-85
2023/05/16 07:43:13;;;;;;;;;;;;;;;33.17;24.57;97781.31;5053957;28;19921;-85
2023/05/16 07:45:40;;;;;;;;;;;;;;;33.44;25.90;97787.25;5055512;28;19920;-84
2023/05/16 07:48:06;;;;;;;;;;;;;;;33.70;24.55;97786.44;5067308;28;19920;-85
2023/05/16 07:50:32;;;;;;;;;;;;;;;33.94;25.74;97778.31;5052802;28;20285;-86
2023/05/16 07:52:58;;;;;;;;;;;;;;;33.85;26.18;97779.28;5054887;28;19928;-86
2023/05/16 07:55:24;;;;;;;;;;;;;;;33.96;25.59;97782.19;5062343;28;19924;-86
2023/05/16 07:57:50;;;;;;;;;;;;;;;33.78;25.41;97793.22;5039419;28;19916;-86
2023/05/16 08:00:17;;;;;;;;;;;;;;;33.96;27.61;97802.16;5057319;28;20011;-86
2023/05/16 08:02:43;;;;;;;;;;;;;;;34.41;27.53;97802.41;5049116;28;19917;-86
2023/05/16 08:05:09;;;;;;;;;;;;;;;34.62;23.77;97795.25;5034628;28;19917;-86
2023/05/16 08:07:35;;;;;;;;;;;;;;;34.50;26.58;97787.94;5051474;28;19932;-86
2023/05/16 08:10:01;;;;;;;;;;;;;;;34.57;26.25;97779.69;5053388;28;19975;-86
2023/05/16 08:12:27;;;;;;;;;;;;;;;34.81;24.38;97779.25;5054387;28;19917;-86
2023/05/16 08:14:53;;;;;;;;;;;;;;;34.86;25.50;97786.25;5052733;28;19927;-86
2023/05/16 08:17:19;;;;;;;;;;;;;;;34.93;26.30;97771.50;5054454;28;20376;-87
2023/05/16 08:19:45;;;;;;;;;;;;;;;34.83;26.66;97782.34;5034812;28;19966;-86
2023/05/16 08:22:11;;;;;;;;;;;;;;;34.67;25.23;97795.28;5051970;28;19925;-86
2023/05/16 08:24:37;;;;;;;;;;;;;;;34.72;26.78;97794.53;5039364;28;19924;-86
2023/05/16 08:27:03;;;;;;;;;;;;;;;35.06;27.26;97803.97;5057022;28;19921;-87
2023/05/16 08:29:30;;;;;;;;;;;;;;;34.68;23.96;97813.94;5062910;28;19920;-86
2023/05/16 08:31:56;;;;;;;;;;;;;;;34.22;22.92;97807.75;5066519;28;19925;-87
2023/05/16 08:34:22;;;;;;;;;;;;;;;34.06;25.93;97799.91;5055695;28;20062;-86
2023/05/16 08:36:49;;;;;;;;;;;;;;;33.99;24.31;97806.06;5062753;28;19920;-86
2023/05/16 08:39:15;;;;;;;;;;;;;;;34.05;25.85;97804.81;5061449;28;19927;-86
2023/05/16 08:41:41;;;;;;;;;;;;;;;34.36;25.56;97806.78;5067627;28;19932;-86
2023/05/16 08:44:09;;;;;;;;;;;;;;;34.38;25.42;97800.59;5052172;28;20388;-86
2023/05/16 08:46:35;;;;;;;;;;;;;;;34.57;24.14;97804.56;5062828;28;19928;-86
2023/05/16 08:49:06;;;;;;;;;;;;;;;34.73;25.92;97813.19;5073678;28;19916;-87
2023/05/16 08:51:35;;;;;;;;;;;;;;;34.95;26.15;97800.28;5072573;28;20383;-86
2023/05/16 08:54:10;;;;;;;;;;;;;;;34.77;25.03;97795.84;5073118;28;19924;-87
2023/05/16 08:56:37;;;;;;;;;;;;;;;34.58;24.56;97789.81;5071357;28;20249;-87
2023/05/16 08:59:03;;;;;;;;;;;;;;;34.79;24.79;97786.75;5071700;28;19921;-87
2023/05/16 09:01:31;;;;;;;;;;;;;;;33.97;24.29;97788.69;5072943;28;19969;-87
2023/05/16 09:03:57;;;;;;;;;;;;;;;34.14;26.35;97783.13;5071892;28;19962;-87
2023/05/16 09:06:23;;;;;;;;;;;;;;;34.58;27.57;97795.53;5064556;28;19920;-86
2023/05/16 09:08:49;;;;;;;;;;;;;;;34.69;24.83;97797.63;5070088;28;20346;-86
2023/05/16 09:11:15;;;;;;;;;;;;;;;34.79;26.80;97792.47;5071819;28;20343;-86
2023/05/16 09:13:41;;;;;;;;;;;;;;;34.93;26.49;97800.03;5072482;28;20414;-86
2023/05/16 09:16:09;;;;;;;;;;;;;;;35.15;25.34;97803.72;5071584;28;19994;-86
2023/05/16 09:18:36;;;;;;;;;;;;;;;35.33;23.53;97802.44;5073412;28;19920;-86
2023/05/16 09:21:03;;;;;;;;;;;;;;;34.44;25.75;97807.88;5061647;28;19964;-87
2023/05/16 09:23:29;;;;;;;;;;;;;;;32.83;29.42;97811.47;5038035;28;19920;-87
2023/05/16 09:25:57;;;;;;;;;;;;;;;31.42;31.06;97805.56;5060708;28;20261;-87
2023/05/16 09:28:24;;;;;;;;;;;;;;;31.76;27.95;97801.25;5066443;28;19921;-86
2023/05/16 09:30:51;;;;;;;;;;;;;;;33.10;25.98;97802.47;5073356;28;19916;-86
2023/05/16 09:33:17;;;;;;;;;;;;;;;33.64;27.64;97794.16;5072899;28;19923;-86
2023/05/16 09:35:43;;;;;;;;;;;;;;;34.40;26.20;97798.00;5072317;28;19926;-86
2023/05/16 09:38:16;;;;;;;;;;;;;;;34.67;25.53;97789.59;5083332;28;19924;-86
2023/05/16 09:40:42;;;;;;;;;;;;;;;34.01;25.22;97789.22;5071104;28;19966;-86
2023/05/16 09:43:08;;;;;;;;;;;;;;;34.25;24.97;97792.50;5071862;28;19931;-87
2023/05/16 09:45:35;;;;;;;;;;;;;;;34.14;26.38;97783.13;5072128;28;20223;-87
2023/05/16 09:48:05;;;;;;;;;;;;;;;34.50;27.95;97777.31;5087361;28;19921;-86
2023/05/16 09:50:32;;;;;;;;;;;;;;;35.15;27.78;97777.28;5088798;28;19920;-86
2023/05/16 09:52:58;;;;;;;;;;;;;;;35.49;24.20;97786.59;5069025;28;20342;-87
2023/05/16 09:55:24;;;;;;;;;;;;;;;34.97;27.21;97786.28;5072072;28;19962;-85
2023/05/16 09:57:50;;;;;;;;;;;;;;;35.31;25.49;97776.50;5077470;28;20344;-85
2023/05/16 10:00:17;;;;;;;;;;;;;;;35.39;27.42;97777.53;5077461;28;19924;-84
2023/05/16 10:02:43;;;;;;;;;;;;;;;35.73;26.13;97773.34;5073145;28;19943;-85
2023/05/16 10:05:09;;;;;;;;;;;;;;;35.12;24.38;97767.66;5072784;28;19970;-86
2023/05/16 10:07:37;;;;;;;;;;;;;;;34.88;25.85;97767.34;5066241;28;19920;-85
2023/05/16 10:10:05;;;;;;;;;;;;;;;35.23;28.86;97764.03;5078215;28;19928;-85
2023/05/16 10:12:31;;;;;;;;;;;;;;;35.88;25.68;97762.44;5093093;28;19922;-85
2023/05/16 10:14:59;;;;;;;;;;;;;;;35.41;26.41;97766.34;5090945;28;19920;-85
2023/05/16 10:17:26;;;;;;;;;;;;;;;35.56;27.38;97766.91;5091102;28;20034;-85
2023/05/16 10:19:53;;;;;;;;;;;;;;;35.97;26.30;97767.09;5065260;28;19928;-85
2023/05/16 10:22:21;;;;;;;;;;;;;;;35.72;26.60;97768.97;5050573;28;20083;-86
2023/05/16 10:24:54;;;;;;;;;;;;;;;34.98;25.86;97754.38;5088305;28;20042;-85
2023/05/16 10:27:20;;;;;;;;;;;;;;;35.29;27.64;97759.88;5073179;28;19924;-85
2023/05/16 10:29:47;;;;;;;;;;;;;;;35.53;27.72;97753.66;5079433;28;19920;-85
2023/05/16 10:32:14;;;;;;;;;;;;;;;35.91;24.37;97752.03;5076264;28;20015;-85
2023/05/16 10:34:41;;;;;;;;;;;;;;;34.30;28.69;97751.84;5076416;28;19962;-86
2023/05/16 10:37:07;;;;;;;;;;;;;;;34.59;26.78;97745.72;5074775;28;20012;-86
2023/05/16 10:39:34;;;;;;;;;;;;;;;34.94;28.31;97744.53;5061125;28;19924;-85
2023/05/16 10:42:01;;;;;;;;;;;;;;;35.54;27.68;97738.09;5082052;28;19913;-85
2023/05/16 10:44:30;;;;;;;;;;;;;;;36.16;27.83;97741.59;5076140;28;19917;-86
2023/05/16 10:46:57;;;;;;;;;;;;;;;36.43;27.77;97732.88;5072377;28;20354;-85
2023/05/16 10:49:24;;;;;;;;;;;;;;;36.50;26.14;97743.78;5076209;28;19917;-85
2023/05/16 10:52:04;;;;;;;;;;;;;;;35.54;25.02;97751.59;5076177;28;20393;-87
2023/05/16 10:54:34;;;;;;;;;;;;;;;35.25;29.24;97752.84;5076457;28;20030;-87
2023/05/16 10:57:04;;;;;;;;;;;;;;;35.23;27.29;97752.59;5075991;28;20368;-86
2023/05/16 10:59:38;;;;;;;;;;;;;;;34.93;25.03;97751.50;5073492;28;19921;-86
2023/05/16 11:02:19;;;;;;;;;;;;;;;34.58;25.63;97747.03;5066699;28;19942;-87
2023/05/16 11:04:50;;;;;;;;;;;;;;;34.41;24.64;97757.56;5075505;28;19916;-86
2023/05/16 11:07:17;;;;;;;;;;;;;;;34.53;26.64;97752.72;5075027;28;20376;-85
2023/05/16 11:09:44;;;;;;;;;;;;;;;34.80;26.33;97749.16;5075920;28;20023;-87
2023/05/16 11:12:11;;;;;;;;;;;;;;;34.85;26.33;97751.22;5076186;28;19920;-85
2023/05/16 11:14:38;;;;;;;;;;;;;;;35.20;24.98;97753.63;5075006;28;19943;-85
2023/05/16 11:17:09;;;;;;;;;;;;;;;34.97;25.47;97754.88;5073732;28;20019;-86
2023/05/16 11:19:38;;;;;;;;;;;;;;;34.83;27.80;97750.97;5055429;28;20400;-85
2023/05/16 11:22:04;;;;;;;;;;;;;;;35.12;25.72;97761.16;5068869;28;19920;-85
2023/05/16 11:24:31;;;;;;;;;;;;;;;34.93;25.65;97760.84;5072741;28;19928;-85
2023/05/16 11:27:00;;;;;;;;;;;;;;;34.83;25.80;97759.53;5075496;28;20460;-85
2023/05/16 11:29:36;;;;;;;;;;;;;;;34.88;27.57;97760.84;5077916;28;19916;-85
2023/05/16 11:32:03;;;;;;;;;;;;;;;34.99;25.40;97758.00;5075455;28;19973;-85
2023/05/16 11:34:30;;;;;;;;;;;;;;;34.74;26.08;97759.78;5068298;28;19928;-87
2023/05/16 11:36:56;;;;;;;;;;;;;;;34.38;25.89;97758.59;5073768;28;20016;-85
2023/05/16 11:39:25;;;;;;;;;;;;;;;34.28;26.26;97760.13;5073907;28;20077;-85
2023/05/16 11:41:52;;;;;;;;;;;;;;;33.92;26.48;97766.63;5074686;28;20373;-85
2023/05/16 11:44:18;;;;;;;;;;;;;;;33.24;25.79;97770.25;5074054;28;19920;-86
2023/05/16 11:46:45;;;;;;;;;;;;;;;33.31;25.67;97766.16;5069623;28;19924;-85
2023/05/16 11:49:11;;;;;;;;;;;;;;;33.50;26.13;97763.72;5074700;28;19928;-85
2023/05/16 11:51:38;;;;;;;;;;;;;;;33.36;27.26;97777.63;5072068;28;19978;-85
2023/05/16 11:54:04;;;;;;;;;;;;;;;33.30;25.62;97770.31;5058968;28;19924;-85
2023/05/16 11:56:31;;;;;;;;;;;;;;;32.84;25.72;97776.06;5069743;28;19920;-85
2023/05/16 11:58:58;;;;;;;;;;;;;;;32.93;27.57;97777.97;5061788;28;19928;-85
2023/05/16 12:01:25;;;;;;;;;;;;;;;33.02;26.41;97778.63;5075095;28;19928;-85
2023/05/16 12:03:55;;;;;;;;;;;;;;;32.80;27.39;97777.56;5074587;28;19916;-85
2023/05/16 12:06:21;;;;;;;;;;;;;;;32.55;27.85;97776.25;5073518;28;20011;-85
2023/05/16 12:08:50;;;;;;;;;;;;;;;32.15;27.98;97782.72;5039976;28;20396;-85
2023/05/16 12:11:17;;;;;;;;;;;;;;;31.90;29.95;97784.13;5074708;28;19969;-85
2023/05/16 12:13:43;;;;;;;;;;;;;;;32.00;26.59;97777.09;5073708;28;19927;-85
2023/05/16 12:16:10;;;;;;;;;;;;;;;31.09;33.29;97779.47;5056597;28;19977;-85
2023/05/16 12:18:37;;;;;;;;;;;;;;;31.08;29.96;97778.69;5041254;28;20046;-85
2023/05/16 12:21:04;;;;;;;;;;;;;;;31.57;27.36;97777.97;5046936;28;19916;-85
2023/05/16 12:23:32;;;;;;;;;;;;;;;31.20;31.96;97780.44;5056350;28;19923;-85
2023/05/16 12:26:00;;;;;;;;;;;;;;;31.22;27.83;97772.25;5074667;28;20023;-85
2023/05/16 12:28:32;;;;;;;;;;;;;;;31.20;29.89;97771.16;5074471;28;19923;-86
2023/05/16 12:30:58;;;;;;;;;;;;;;;31.44;27.52;97771.06;5068436;28;19926;-85
2023/05/16 12:33:24;;;;;;;;;;;;;;;30.34;32.89;97776.22;5074039;28;19924;-85
2023/05/16 12:35:51;;;;;;;;;;;;;;;30.22;29.23;97771.56;5072136;28;19921;-84
2023/05/16 12:38:18;;;;;;;;;;;;;;;31.54;27.18;97766.81;5062123;28;20023;-85
2023/05/16 12:40:45;;;;;;;;;;;;;;;31.64;26.99;97765.44;5074128;28;19917;-86
2023/05/16 12:43:21;;;;;;;;;;;;;;;31.82;27.77;97762.34;5055380;28;19956;-83
2023/05/16 12:45:51;;;;;;;;;;;;;;;31.19;27.00;97759.03;5064112;28;19920;-85